Basehor, Kansas
Current Conditions -  °F | °C
As of 11:53 AM on Wednesday 26 Nov 2014 (Local Time) from KMCI Reporting Station
Overcast Overcast  
Wind Chill: 28°   Ceiling: 2400
Heat Index: 39°   Visibility: 10mi
Dew Point: 31°   Wind: 23mph
Humidity: 73%   Direction: 300°WNW
Pressure: 30"   Gusts: 32mph
Location:  39.14°N, 94.94°W
Report Text: KMCI 261753Z 30020G28KT 10SM OVC024 04/M01 A3000 RMK AO2 PK WND 30028/1751 SLP162 T00391006 10050 20017 53014
Loading
Personal Weather Stations






























Interactive Weather Map New forecast layout! Learn more

10-Day Weather Forecast

Advertisements
Track Severe Weather on mobile